createdAt,value
2022-11-13T00:00:57.002Z,101916.06
2022-11-13T00:03:23.613Z,101913.53
2022-11-13T00:06:00.588Z,101915.25
2022-11-13T00:08:27.445Z,101909.25
2022-11-13T00:11:05.033Z,101912.66
2022-11-13T00:13:31.854Z,101909.59
2022-11-13T00:16:00.325Z,101907.88
2022-11-13T00:18:28.135Z,101913.34
2022-11-13T00:20:55.022Z,101915.25
2022-11-13T00:23:21.522Z,101913.34
2022-11-13T00:25:48.060Z,101915.91
2022-11-13T00:28:14.759Z,101920.16
2022-11-13T00:30:41.430Z,101912.84
2022-11-13T00:33:07.995Z,101913.34
2022-11-13T00:35:34.656Z,101909.09
2022-11-13T00:38:01.139Z,101908.41
2022-11-13T00:40:27.681Z,101909.78
2022-11-13T00:42:54.202Z,101916.59
2022-11-13T00:45:20.732Z,101907.91
2022-11-13T00:47:47.224Z,101912.16
2022-11-13T00:50:13.822Z,101917.44
2022-11-13T00:52:40.408Z,101917.28
2022-11-13T00:55:07.432Z,101907.56
2022-11-13T00:57:33.976Z,101905.53
2022-11-13T01:00:00.467Z,101903.47
2022-11-13T01:02:27.010Z,101900.06
2022-11-13T01:04:53.535Z,101893.56
2022-11-13T01:07:20.142Z,101897.34
2022-11-13T01:09:50.689Z,101877.56
2022-11-13T01:12:17.272Z,101890.84
2022-11-13T01:14:43.843Z,101885.22
2022-11-13T01:17:10.388Z,101883.16
2022-11-13T01:19:36.987Z,101889.84
2022-11-13T01:22:03.581Z,101887.59
2022-11-13T01:24:31.774Z,101893.06
2022-11-13T01:26:58.303Z,101892.03
2022-11-13T01:29:24.809Z,101888.78
2022-11-13T01:31:51.338Z,101881.25
2022-11-13T01:34:18.191Z,101880.44
2022-11-13T01:36:44.681Z,101877.03
2022-11-13T01:39:12.548Z,101876.84
2022-11-13T01:41:39.604Z,101874.44
2022-11-13T01:44:11.370Z,101872.75
2022-11-13T01:46:44.243Z,101876.34
2022-11-13T01:49:10.689Z,101869.66
2022-11-13T01:51:47.144Z,101862.34
2022-11-13T01:54:16.108Z,101865.06
2022-11-13T01:56:43.644Z,101876.16
2022-11-13T01:59:17.707Z,101868.50
2022-11-13T02:01:44.877Z,101865.44
2022-11-13T02:04:11.746Z,101860.66
2022-11-13T02:06:49.687Z,101863.88
2022-11-13T02:09:20.619Z,101861.31
2022-11-13T02:11:47.557Z,101853.47
2022-11-13T02:14:15.960Z,101850.56
2022-11-13T02:16:45.541Z,101856.03
2022-11-13T02:19:25.566Z,101852.28
2022-11-13T02:22:07.503Z,101858.41
2022-11-13T02:24:45.004Z,101855.50
2022-11-13T02:27:26.358Z,101863.19
2022-11-13T02:29:53.565Z,101854.00
2022-11-13T02:32:20.128Z,101851.44
2022-11-13T02:34:46.711Z,101852.47
2022-11-13T02:37:13.328Z,101856.72
2022-11-13T02:39:40.065Z,101856.72
2022-11-13T02:42:06.695Z,101851.28
2022-11-13T02:44:33.332Z,101854.81
2022-11-13T02:46:59.926Z,101848.69
2022-11-13T02:49:26.433Z,101851.28
2022-11-13T02:51:54.075Z,101851.78
2022-11-13T02:54:20.605Z,101853.66
2022-11-13T02:56:47.312Z,101847.84
2022-11-13T02:59:13.894Z,101850.75
2022-11-13T03:04:21.267Z,101842.38
2022-11-13T03:06:47.977Z,101851.94
2022-11-13T03:09:14.579Z,101850.94
2022-11-13T03:11:43.341Z,101846.34
2022-11-13T03:14:10.451Z,101846.34
2022-11-13T03:16:37.332Z,101848.22
2022-11-13T03:19:04.633Z,101850.94
2022-11-13T03:21:31.389Z,101857.75
2022-11-13T03:23:57.985Z,101849.88
2022-11-13T03:26:24.549Z,101852.63
2022-11-13T03:28:51.048Z,101855.34
2022-11-13T03:31:17.537Z,101863.19
2022-11-13T03:33:44.060Z,101857.41
2022-11-13T03:36:10.656Z,101854.66
2022-11-13T03:38:37.862Z,101861.69
2022-11-13T03:41:04.625Z,101858.59
2022-11-13T03:43:31.561Z,101861.84
2022-11-13T03:45:58.076Z,101858.44
2022-11-13T03:48:24.844Z,101857.41
2022-11-13T03:50:54.131Z,101865.97
2022-11-13T03:53:20.708Z,101867.47
2022-11-13T03:55:47.732Z,101860.81
2022-11-13T03:58:14.413Z,101861.00
2022-11-13T04:00:42.666Z,101871.22
2022-11-13T04:03:09.749Z,101864.91
2022-11-13T04:05:36.391Z,101863.56
2022-11-13T04:08:03.573Z,101865.09
2022-11-13T04:10:30.613Z,101861.16
2022-11-13T04:12:57.228Z,101869.34
2022-11-13T04:15:23.962Z,101868.34
2022-11-13T04:17:51.106Z,101862.03
2022-11-13T04:20:17.872Z,101859.81
2022-11-13T04:22:44.523Z,101852.31
2022-11-13T04:25:11.138Z,101862.56
2022-11-13T04:27:37.656Z,101863.56
2022-11-13T04:30:05.344Z,101866.78
2022-11-13T04:32:32.859Z,101868.31
2022-11-13T04:34:59.375Z,101871.41
2022-11-13T04:37:25.935Z,101858.78
2022-11-13T04:39:52.563Z,101869.50
2022-11-13T04:42:37.671Z,101867.66
2022-11-13T04:45:04.787Z,101871.75
2022-11-13T04:47:31.392Z,101874.66
2022-11-13T04:49:57.890Z,101880.28
2022-11-13T04:52:24.434Z,101878.22
2022-11-13T04:54:51.030Z,101877.41
2022-11-13T04:57:17.531Z,101872.75
2022-11-13T04:59:44.140Z,101881.47
2022-11-13T05:02:10.706Z,101878.22
2022-11-13T05:04:37.256Z,101882.00
2022-11-13T05:07:04.833Z,101883.00
2022-11-13T05:09:31.408Z,101877.22
2022-11-13T05:11:58.015Z,101872.94
2022-11-13T05:14:24.710Z,101887.28
2022-11-13T05:16:51.747Z,101887.63
2022-11-13T05:19:18.254Z,101888.31
2022-11-13T05:21:44.979Z,101889.31
2022-11-13T05:24:11.938Z,101893.09
2022-11-13T05:26:39.754Z,101886.59
2022-11-13T05:29:07.044Z,101884.91
2022-11-13T05:31:33.593Z,101889.50
2022-11-13T05:34:05.313Z,101888.81
2022-11-13T05:36:32.891Z,101896.19
2022-11-13T05:38:59.610Z,101892.94
2022-11-13T05:41:26.974Z,101895.97
2022-11-13T05:43:59.020Z,101899.06
2022-11-13T05:46:28.186Z,101896.16
2022-11-13T05:48:58.055Z,101900.06
2022-11-13T05:51:27.358Z,101892.94
2022-11-13T05:53:54.417Z,101894.44
2022-11-13T05:56:28.091Z,101904.50
2022-11-13T05:58:55.416Z,101899.03
2022-11-13T06:01:25.580Z,101897.31
2022-11-13T06:03:56.014Z,101902.28
2022-11-13T06:06:23.883Z,101894.44
2022-11-13T06:08:51.534Z,101898.03
2022-11-13T06:11:21.055Z,101898.69
2022-11-13T06:13:48.536Z,101902.47
2022-11-13T06:16:18.153Z,101901.28
2022-11-13T06:18:45.933Z,101902.44
2022-11-13T06:21:16.863Z,101903.97
2022-11-13T06:23:44.281Z,101909.94
2022-11-13T06:26:15.448Z,101902.28
2022-11-13T06:28:42.760Z,101904.13
2022-11-13T06:31:15.006Z,101893.03
2022-11-13T06:33:42.702Z,101890.84
2022-11-13T06:36:15.745Z,101900.72
2022-11-13T06:38:43.131Z,101890.13
2022-11-13T06:41:12.290Z,101894.19
2022-11-13T06:43:39.178Z,101900.72
2022-11-13T06:46:10.218Z,101888.06
2022-11-13T06:48:36.899Z,101896.59
2022-11-13T06:51:06.054Z,101910.91
2022-11-13T06:53:33.369Z,101902.72
2022-11-13T06:56:00.604Z,101908.72
2022-11-13T06:58:27.850Z,101904.25
2022-11-13T07:00:54.933Z,101910.59
2022-11-13T07:03:26.979Z,101901.34
2022-11-13T07:05:53.618Z,101909.88
2022-11-13T07:08:20.287Z,101908.53
2022-11-13T07:10:54.995Z,101904.22
2022-11-13T07:13:22.356Z,101907.28
2022-11-13T07:15:49.435Z,101902.03
2022-11-13T07:18:19.096Z,101906.47
2022-11-13T07:20:49.449Z,101896.06
2022-11-13T07:23:15.981Z,101907.09
2022-11-13T07:25:42.520Z,101909.66
2022-11-13T07:28:09.213Z,101901.31
2022-11-13T07:30:35.774Z,101899.03
2022-11-13T07:33:04.242Z,101891.00
2022-11-13T07:35:30.897Z,101894.78
2022-11-13T07:37:58.626Z,101900.59
2022-11-13T07:40:25.842Z,101909.13
2022-11-13T07:43:02.553Z,101900.25
2022-11-13T07:45:29.510Z,101902.84
2022-11-13T07:48:00.320Z,101902.84
2022-11-13T07:50:28.694Z,101898.19
2022-11-13T07:52:59.886Z,101905.84
2022-11-13T07:55:27.524Z,101896.44
2022-11-13T07:57:58.595Z,101898.50
2022-11-13T08:00:29.083Z,101898.47
2022-11-13T08:02:56.961Z,101899.13
2022-11-13T08:05:23.830Z,101900.28
2022-11-13T08:07:52.062Z,101899.47
2022-11-13T08:10:20.266Z,101907.28
2022-11-13T08:12:47.281Z,101904.06
2022-11-13T08:15:15.236Z,101906.63
2022-11-13T08:17:41.963Z,101906.81
2022-11-13T08:20:09.201Z,101910.25
2022-11-13T08:22:35.747Z,101903.06
2022-11-13T08:25:02.480Z,101903.22
2022-11-13T08:27:29.107Z,101902.69
2022-11-13T08:29:55.845Z,101899.13
2022-11-13T08:32:22.687Z,101902.88
2022-11-13T08:34:49.460Z,101906.66
2022-11-13T08:37:16.168Z,101897.56
2022-11-13T08:39:42.713Z,101898.41
2022-11-13T08:42:09.283Z,101903.53
2022-11-13T08:44:35.964Z,101901.81
2022-11-13T08:47:02.545Z,101907.81
2022-11-13T08:49:29.122Z,101913.59
2022-11-13T08:51:55.849Z,101905.22
2022-11-13T08:54:22.390Z,101913.25
2022-11-13T08:56:53.046Z,101910.00
2022-11-13T08:59:23.813Z,101905.75
2022-11-13T09:01:50.786Z,101912.31
2022-11-13T09:04:17.576Z,101914.84
2022-11-13T09:06:44.319Z,101913.50
2022-11-13T09:09:10.921Z,101906.66
2022-11-13T09:11:37.765Z,101903.25
2022-11-13T09:14:04.557Z,101900.28
2022-11-13T09:16:31.054Z,101896.66
2022-11-13T09:18:57.664Z,101897.56
2022-11-13T09:21:24.825Z,101890.53
2022-11-13T09:23:51.316Z,101891.59
2022-11-13T09:26:18.226Z,101889.06
2022-11-13T09:28:44.849Z,101892.09
2022-11-13T09:31:11.474Z,101887.34
2022-11-13T09:33:39.187Z,101888.69
2022-11-13T09:36:15.895Z,101886.75
2022-11-13T09:38:43.406Z,101890.53
2022-11-13T09:41:13.182Z,101894.13
2022-11-13T09:44:32.095Z,101886.59
2022-11-13T09:47:08.407Z,101885.69
2022-11-13T09:49:40.630Z,101882.28
2022-11-13T09:52:15.932Z,101883.63
2022-11-13T09:54:43.561Z,101881.47
2022-11-13T09:57:33.819Z,101882.81
2022-11-13T10:00:13.118Z,101888.47
2022-11-13T10:02:55.349Z,101877.31
2022-11-13T10:05:39.678Z,101877.31
2022-11-13T10:08:21.538Z,101873.78
2022-11-13T10:10:56.110Z,101872.44
2022-11-13T10:13:33.287Z,101876.41
2022-11-13T10:16:14.467Z,101873.78
2022-11-13T10:18:42.165Z,101876.94
2022-11-13T10:21:29.791Z,101871.06
2022-11-13T10:23:57.329Z,101868.47
2022-11-13T10:26:27.637Z,101867.91
2022-11-13T10:29:06.579Z,101857.00
2022-11-13T10:31:45.012Z,101861.59
2022-11-13T10:34:13.544Z,101859.03
2022-11-13T10:36:54.707Z,101862.75
2022-11-13T10:39:21.398Z,101868.03
2022-11-13T10:41:53.964Z,101861.34
2022-11-13T10:44:30.800Z,101855.19
2022-11-13T10:47:56.907Z,101863.25
2022-11-13T10:50:22.464Z,101859.66
2022-11-13T10:52:51.082Z,101855.75
2022-11-13T10:55:36.655Z,101850.47
2022-11-13T10:58:16.387Z,101851.31
2022-11-13T11:00:47.466Z,101851.66
2022-11-13T11:03:19.702Z,101848.72
2022-11-13T11:06:04.398Z,101846.66
2022-11-13T11:08:33.945Z,101844.94
2022-11-13T11:11:26.810Z,101840.88
2022-11-13T11:14:24.445Z,101844.66
2022-11-13T11:16:53.472Z,101857.28
2022-11-13T11:19:25.632Z,101850.00
2022-11-13T11:22:01.288Z,101853.53
2022-11-13T11:24:35.260Z,101848.25
2022-11-13T11:27:23.120Z,101844.09
2022-11-13T11:30:01.220Z,101846.47
2022-11-13T11:32:34.725Z,101859.13
2022-11-13T11:35:15.879Z,101854.00
2022-11-13T11:38:01.245Z,101846.09
2022-11-13T11:40:36.313Z,101838.25
2022-11-13T11:43:21.188Z,101837.16
2022-11-13T11:45:48.248Z,101826.19
2022-11-13T11:48:26.523Z,101833.56
2022-11-13T11:51:24.265Z,101831.25
2022-11-13T11:54:13.032Z,101823.25
2022-11-13T11:56:48.592Z,101827.13
2022-11-13T11:59:33.378Z,101818.09
2022-11-13T12:02:16.481Z,101816.94
2022-11-13T12:04:52.030Z,101816.06
2022-11-13T12:07:31.053Z,101820.88
2022-11-13T12:10:26.494Z,101816.88
2022-11-13T12:13:13.283Z,101819.84
2022-11-13T12:15:49.863Z,101817.44
2022-11-13T12:18:57.151Z,101814.69
2022-11-13T12:21:27.921Z,101817.72
2022-11-13T12:24:18.926Z,101812.19
2022-11-13T12:27:06.189Z,101814.00
2022-11-13T12:30:03.114Z,101809.75
2022-11-13T12:32:51.678Z,101803.94
2022-11-13T12:35:21.012Z,101806.84
2022-11-13T12:38:06.350Z,101801.97
2022-11-13T12:40:44.228Z,101798.97
2022-11-13T12:43:50.643Z,101801.25
2022-11-13T12:46:18.293Z,101798.00
2022-11-13T12:48:47.049Z,101790.66
2022-11-13T12:51:15.958Z,101791.31
2022-11-13T12:53:55.443Z,101803.00
2022-11-13T12:56:26.096Z,101800.28
2022-11-13T12:59:23.689Z,101797.91
2022-11-13T13:01:48.979Z,101796.25
2022-11-13T13:04:39.446Z,101802.78
2022-11-13T13:07:23.114Z,101796.00
2022-11-13T13:10:11.286Z,101795.28
2022-11-13T13:12:40.675Z,101792.97
2022-11-13T13:15:27.938Z,101794.31
2022-11-13T13:18:27.030Z,101798.19
2022-11-13T13:21:06.581Z,101798.50
2022-11-13T13:23:39.207Z,101799.16
2022-11-13T13:26:28.366Z,101792.38
2022-11-13T13:29:08.530Z,101788.03
2022-11-13T13:31:44.163Z,101789.34
2022-11-13T13:34:18.121Z,101783.88
2022-11-13T13:37:00.756Z,101782.44
2022-11-13T13:39:46.201Z,101784.78
2022-11-13T13:42:12.668Z,101784.13
2022-11-13T13:45:00.977Z,101777.91
2022-11-13T13:47:35.608Z,101781.88
2022-11-13T13:50:06.251Z,101779.03
2022-11-13T13:52:35.109Z,101773.47
2022-11-13T13:55:07.658Z,101780.16
2022-11-13T13:57:40.979Z,101769.13
2022-11-13T14:00:13.579Z,101769.41
2022-11-13T14:02:51.234Z,101771.00
2022-11-13T14:05:35.947Z,101764.00
2022-11-13T14:08:07.634Z,101758.44
2022-11-13T14:10:36.923Z,101764.09
2022-11-13T14:13:04.285Z,101765.59
2022-11-13T14:15:33.639Z,101757.75
2022-11-13T14:18:08.229Z,101757.50
2022-11-13T14:20:58.778Z,101754.59
2022-11-13T14:23:39.340Z,101755.56
2022-11-13T14:26:06.655Z,101759.31
2022-11-13T14:28:44.550Z,101754.97
2022-11-13T14:31:13.998Z,101754.66
2022-11-13T14:33:50.002Z,101753.91
2022-11-13T14:36:27.070Z,101755.97
2022-11-13T14:38:54.220Z,101756.25
2022-11-13T14:41:38.532Z,101757.53
2022-11-13T14:44:05.830Z,101757.22
2022-11-13T14:47:06.434Z,101762.56
2022-11-13T14:49:36.182Z,101753.25
2022-11-13T14:52:03.695Z,101758.19
2022-11-13T14:55:14.300Z,101756.44
2022-11-13T14:57:25.115Z,101744.19
2022-11-13T14:59:52.023Z,101745.16
2022-11-13T15:02:20.332Z,101739.19
2022-11-13T15:04:47.892Z,101728.56
2022-11-13T15:07:29.634Z,101733.47
2022-11-13T15:09:57.464Z,101731.81
2022-11-13T15:12:24.009Z,101734.84
2022-11-13T15:14:51.611Z,101722.88
2022-11-13T15:17:21.964Z,101728.03
2022-11-13T15:19:53.771Z,101731.28
2022-11-13T15:22:27.116Z,101731.88
2022-11-13T15:24:55.079Z,101720.56
2022-11-13T15:27:21.747Z,101733.25
2022-11-13T15:29:48.355Z,101735.31
2022-11-13T15:32:16.544Z,101725.59
2022-11-13T15:34:43.266Z,101712.44
2022-11-13T15:37:14.655Z,101725.56
2022-11-13T15:39:41.293Z,101717.47
2022-11-13T15:42:13.829Z,101724.34
2022-11-13T15:44:40.920Z,101714.91
2022-11-13T15:47:26.582Z,101711.22
2022-11-13T15:50:12.504Z,101725.97
2022-11-13T15:52:42.754Z,101724.13
2022-11-13T15:55:30.763Z,101719.66
2022-11-13T15:57:58.555Z,101716.72
2022-11-13T16:00:28.261Z,101725.22
2022-11-13T16:02:56.749Z,101731.03
2022-11-13T16:05:25.678Z,101716.56
2022-11-13T16:07:53.688Z,101729.84
2022-11-13T16:10:22.158Z,101727.31
2022-11-13T16:12:48.961Z,101726.50
2022-11-13T16:15:17.202Z,101737.06
2022-11-13T16:17:48.933Z,101731.78
2022-11-13T16:20:17.074Z,101731.13
2022-11-13T16:22:44.289Z,101731.44
2022-11-13T16:25:13.475Z,101728.38
2022-11-13T16:27:40.191Z,101729.59
2022-11-13T16:30:13.294Z,101728.56
2022-11-13T16:32:39.792Z,101731.72
2022-11-13T16:35:06.598Z,101730.13
2022-11-13T16:37:33.134Z,101733.91
2022-11-13T16:39:59.609Z,101726.72
2022-11-13T16:42:30.769Z,101727.03
2022-11-13T16:44:57.545Z,101728.03
2022-11-13T16:47:27.018Z,101738.78
2022-11-13T16:49:53.701Z,101733.25
2022-11-13T16:52:20.258Z,101735.16
2022-11-13T16:54:46.891Z,101721.09
2022-11-13T16:57:14.562Z,101728.81
2022-11-13T16:59:41.420Z,101718.56
2022-11-13T17:04:58.423Z,101722.44
2022-11-13T17:10:29.067Z,101724.03
2022-11-13T17:12:51.913Z,101726.16
2022-11-13T17:15:18.927Z,101719.22
2022-11-13T17:17:46.269Z,101719.41
2022-11-13T17:20:13.696Z,101725.03
2022-11-13T17:22:43.943Z,101726.13
2022-11-13T17:25:10.439Z,101713.19
2022-11-13T17:27:36.913Z,101715.91
2022-11-13T17:32:29.971Z,101709.38
2022-11-13T17:34:57.615Z,101715.16
2022-11-13T17:40:56.003Z,101711.38
2022-11-13T17:43:22.603Z,101713.09
2022-11-13T17:45:50.986Z,101711.69
2022-11-13T17:48:18.779Z,101706.72
2022-11-13T17:50:45.280Z,101704.34
2022-11-13T17:53:11.870Z,101698.78
2022-11-13T17:55:38.365Z,101704.16
2022-11-13T17:58:05.007Z,101699.63
2022-11-13T18:00:31.633Z,101702.47
2022-11-13T18:02:58.178Z,101699.13
2022-11-13T18:05:24.729Z,101691.97
2022-11-13T18:07:51.245Z,101698.81
2022-11-13T18:10:18.119Z,101697.44
2022-11-13T18:12:44.712Z,101690.63
2022-11-13T18:15:11.257Z,101680.56
2022-11-13T18:17:38.355Z,101693.66
2022-11-13T18:20:05.318Z,101688.59
2022-11-13T18:22:31.889Z,101680.41
2022-11-13T18:24:58.581Z,101681.41
2022-11-13T18:27:25.172Z,101678.00
2022-11-13T18:29:51.890Z,101686.75
2022-11-13T18:32:18.831Z,101686.09
2022-11-13T18:34:45.409Z,101676.91
2022-11-13T18:37:12.056Z,101689.59
2022-11-13T18:39:38.719Z,101692.34
2022-11-13T18:42:05.256Z,101693.31
2022-11-13T18:44:36.690Z,101686.75
2022-11-13T18:47:03.412Z,101690.63
2022-11-13T18:49:29.935Z,101693.19
2022-11-13T18:51:56.494Z,101697.72
2022-11-13T18:54:24.048Z,101702.72
2022-11-13T18:56:51.015Z,101702.59
2022-11-13T18:59:17.679Z,101696.09
2022-11-13T19:01:44.533Z,101699.50
2022-11-13T19:04:27.458Z,101706.31
2022-11-13T19:06:54.188Z,101695.38
2022-11-13T19:09:20.922Z,101698.81
2022-11-13T19:11:47.471Z,101694.06
2022-11-13T19:14:17.790Z,101703.72
2022-11-13T19:16:44.545Z,101704.56
2022-11-13T19:19:20.900Z,101704.59
2022-11-13T19:21:47.951Z,101705.72
2022-11-13T19:24:15.006Z,101703.00
2022-11-13T19:26:42.985Z,101707.44
2022-11-13T19:29:09.926Z,101707.03
2022-11-13T19:31:36.424Z,101707.88
2022-11-13T19:34:06.395Z,101708.84
2022-11-13T19:36:34.421Z,101710.59
2022-11-13T19:39:01.199Z,101720.00
2022-11-13T19:41:29.409Z,101711.78
2022-11-13T19:43:59.394Z,101712.00
2022-11-13T19:46:26.719Z,101712.00
2022-11-13T19:48:53.384Z,101699.34
2022-11-13T19:51:22.890Z,101713.72
2022-11-13T19:53:54.799Z,101709.34
2022-11-13T19:56:22.924Z,101698.97
2022-11-13T19:58:50.938Z,101713.28
2022-11-13T20:01:23.194Z,101718.00
2022-11-13T20:03:57.702Z,101712.22
2022-11-13T20:06:26.085Z,101713.63
2022-11-13T20:08:52.924Z,101710.34
2022-11-13T20:11:19.510Z,101711.19
2022-11-13T20:13:46.448Z,101719.88
2022-11-13T20:16:14.984Z,101721.22
2022-11-13T20:18:42.875Z,101723.47
2022-11-13T20:21:10.031Z,101729.34
2022-11-13T20:23:38.117Z,101724.22
2022-11-13T20:26:07.514Z,101719.28
2022-11-13T20:28:34.856Z,101718.75
2022-11-13T20:31:19.715Z,101718.00
2022-11-13T20:33:47.487Z,101715.47
2022-11-13T20:36:15.482Z,101712.22
2022-11-13T20:38:46.561Z,101718.66
2022-11-13T20:41:15.606Z,101710.28
2022-11-13T20:43:42.275Z,101700.88
2022-11-13T20:46:11.238Z,101713.44
2022-11-13T20:48:38.363Z,101710.06
2022-11-13T20:51:16.873Z,101702.59
2022-11-13T20:53:44.884Z,101715.03
2022-11-13T20:56:11.865Z,101710.59
2022-11-13T20:58:38.433Z,101717.09
2022-11-13T21:01:10.504Z,101714.78
2022-11-13T21:03:41.850Z,101716.72
2022-11-13T21:06:10.521Z,101708.63
2022-11-13T21:08:37.369Z,101704.16
2022-11-13T21:11:08.554Z,101706.16
2022-11-13T21:13:35.180Z,101713.03
2022-11-13T21:16:06.404Z,101699.63
2022-11-13T21:18:32.967Z,101701.81
2022-11-13T21:21:11.170Z,101699.25
2022-11-13T21:23:38.108Z,101695.78
2022-11-13T21:26:06.344Z,101694.19
2022-11-13T21:28:34.118Z,101696.97
2022-11-13T21:31:02.937Z,101702.56
2022-11-13T21:33:31.476Z,101700.50
2022-11-13T21:36:04.464Z,101697.38
2022-11-13T21:38:32.211Z,101697.66
2022-11-13T21:41:21.463Z,101701.44
2022-11-13T21:43:58.461Z,101700.25
2022-11-13T21:46:27.942Z,101711.75
2022-11-13T21:49:00.655Z,101701.56
2022-11-13T21:51:28.928Z,101698.44
2022-11-13T21:53:58.253Z,101705.56
2022-11-13T21:56:26.185Z,101699.63
2022-11-13T21:58:53.100Z,101700.84
2022-11-13T22:01:19.735Z,101695.53
2022-11-13T22:03:46.273Z,101698.44
2022-11-13T22:06:26.585Z,101697.25
2022-11-13T22:08:56.228Z,101698.44
2022-11-13T22:11:27.337Z,101696.38
2022-11-13T22:13:54.898Z,101697.81
2022-11-13T22:16:23.502Z,101692.84
2022-11-13T22:18:55.347Z,101683.66
2022-11-13T22:21:22.718Z,101695.78
2022-11-13T22:23:50.137Z,101678.06
2022-11-13T22:26:18.368Z,101696.13
2022-11-13T22:28:46.241Z,101690.31
2022-11-13T22:31:21.721Z,101690.31
2022-11-13T22:33:52.480Z,101685.91
2022-11-13T22:36:23.474Z,101680.81
2022-11-13T22:38:50.127Z,101675.47
2022-11-13T22:41:23.613Z,101679.06
2022-11-13T22:43:53.281Z,101679.59
2022-11-13T22:46:22.651Z,101683.50
2022-11-13T22:48:50.138Z,101679.06
2022-11-13T22:51:19.667Z,101671.22
2022-11-13T22:53:55.189Z,101679.41
2022-11-13T22:56:23.824Z,101673.47
2022-11-13T22:58:50.767Z,101677.78
2022-11-13T23:01:31.914Z,101664.66
2022-11-13T23:04:01.411Z,101672.69
2022-11-13T23:06:30.896Z,101667.22
2022-11-13T23:08:57.895Z,101665.34
2022-11-13T23:11:44.029Z,101660.06
2022-11-13T23:14:12.833Z,101660.75
2022-11-13T23:16:39.399Z,101662.13
2022-11-13T23:19:06.102Z,101662.47
2022-11-13T23:21:33.188Z,101649.53
2022-11-13T23:24:00.224Z,101649.19
2022-11-13T23:26:28.482Z,101645.59
2022-11-13T23:28:55.609Z,101646.63
2022-11-13T23:31:23.072Z,101645.78
2022-11-13T23:33:49.704Z,101650.53
2022-11-13T23:36:18.140Z,101650.72
2022-11-13T23:38:45.278Z,101649.88
2022-11-13T23:41:12.224Z,101657.84
2022-11-13T23:46:25.331Z,101651.53
2022-11-13T23:48:52.312Z,101643.44
2022-11-13T23:51:18.803Z,101650.38
2022-11-13T23:53:45.318Z,101641.53
2022-11-13T23:56:11.899Z,101639.34
2022-11-13T23:58:38.381Z,101633.88
